createdAt,value
2019-05-16T00:00:21.402Z,64.03
2019-05-16T00:01:21.370Z,64.37
2019-05-16T00:02:21.369Z,64.37
2019-05-16T00:03:21.301Z,64.78
2019-05-16T00:04:21.269Z,65.19
2019-05-16T00:05:21.242Z,65.60
2019-05-16T00:06:21.212Z,65.39
2019-05-16T00:07:21.200Z,65.60
2019-05-16T00:08:21.142Z,66.01
2019-05-16T00:09:21.112Z,66.52
2019-05-16T00:10:21.094Z,66.63
2019-05-16T00:11:21.049Z,66.35
2019-05-16T00:12:21.049Z,66.31
2019-05-16T00:13:20.992Z,66.93
2019-05-16T00:14:20.961Z,67.79
2019-05-16T00:15:20.921Z,67.55
2019-05-16T00:16:20.892Z,67.89
2019-05-16T00:17:20.862Z,68.61
2019-05-16T00:18:20.850Z,68.40
2019-05-16T00:19:20.851Z,68.71
2019-05-16T00:20:20.787Z,68.43
2019-05-16T00:21:20.737Z,69.32
2019-05-16T00:22:20.712Z,69.43
2019-05-16T00:23:20.697Z,68.71
2019-05-16T00:24:20.648Z,69.05
2019-05-16T00:25:20.610Z,69.56
2019-05-16T00:26:20.586Z,69.05
2019-05-16T00:27:20.552Z,69.87
2019-05-16T00:28:20.542Z,69.67
2019-05-16T00:29:20.497Z,70.18
2019-05-16T00:30:20.459Z,70.18
2019-05-16T00:31:20.423Z,70.18
2019-05-16T00:32:20.392Z,69.77
2019-05-16T00:33:20.392Z,69.67
2019-05-16T00:34:20.355Z,70.08
2019-05-16T00:35:20.291Z,70.39
2019-05-16T00:36:20.261Z,70.08
2019-05-16T00:37:23.061Z,70.39
2019-05-16T00:38:20.217Z,70.28
2019-05-16T00:39:20.164Z,70.94
2019-05-16T00:40:20.130Z,71.04
2019-05-16T00:41:20.108Z,70.70
2019-05-16T00:42:20.073Z,70.94
2019-05-16T00:43:20.060Z,71.14
2019-05-16T00:44:20.672Z,71.45
2019-05-16T00:45:19.983Z,71.55
2019-05-16T00:46:20.279Z,71.45
2019-05-16T00:47:19.910Z,71.66
2019-05-16T00:48:19.902Z,72.17
2019-05-16T00:49:19.845Z,72.06
2019-05-16T00:50:19.815Z,72.47
2019-05-16T00:51:19.777Z,72.27
2019-05-16T00:52:19.751Z,72.89
2019-05-16T00:53:19.739Z,73.19
2019-05-16T00:54:19.682Z,73.54
2019-05-16T00:55:19.661Z,73.50
2019-05-16T00:56:19.617Z,73.40
2019-05-16T00:57:19.605Z,72.58
2019-05-16T00:58:19.589Z,73.44
2019-05-16T00:59:19.525Z,74.36
2019-05-16T01:00:19.488Z,74.15
2019-05-16T01:01:19.462Z,74.36
2019-05-16T01:02:19.426Z,74.57
2019-05-16T01:03:20.156Z,74.67
2019-05-16T01:04:19.384Z,74.77
2019-05-16T01:05:19.349Z,75.29
2019-05-16T01:06:22.814Z,76.52
2019-05-16T01:07:19.268Z,76.73
2019-05-16T01:08:19.295Z,79.30
2019-05-16T01:09:19.199Z,80.36
2019-05-16T01:10:19.178Z,80.16
2019-05-16T01:11:19.146Z,81.49
2019-05-16T01:12:19.110Z,82.87
2019-05-16T01:13:19.104Z,83.12
2019-05-16T01:14:19.041Z,83.63
2019-05-16T01:15:19.063Z,84.97
2019-05-16T01:16:18.978Z,84.77
2019-05-16T01:17:18.944Z,85.17
2019-05-16T01:18:18.979Z,85.17
2019-05-16T01:19:18.880Z,85.49
2019-05-16T01:20:19.368Z,85.79
2019-05-16T01:21:18.862Z,85.28
2019-05-16T01:22:18.814Z,85.11
2019-05-16T01:23:18.752Z,85.07
2019-05-16T01:24:18.944Z,85.17
2019-05-16T01:25:19.570Z,85.28
2019-05-16T01:26:18.782Z,85.28
2019-05-16T01:27:18.639Z,85.28
2019-05-16T01:28:18.588Z,85.17
2019-05-16T01:29:18.938Z,85.17
2019-05-16T01:30:18.856Z,85.17
2019-05-16T01:31:19.163Z,85.17
2019-05-16T01:32:19.025Z,85.17
2019-05-16T01:33:19.188Z,85.49
2019-05-16T01:34:18.419Z,84.77
2019-05-16T01:35:18.829Z,85.89
2019-05-16T01:36:33.032Z,85.59
2019-05-16T01:37:18.657Z,85.73
2019-05-16T01:38:18.334Z,86.82
2019-05-16T01:39:18.362Z,86.93
2019-05-16T01:40:18.888Z,86.76
2019-05-16T01:41:18.189Z,87.99
2019-05-16T01:42:18.500Z,87.38
2019-05-16T01:43:18.112Z,87.38
2019-05-16T01:44:18.441Z,88.31
2019-05-16T01:45:18.771Z,89.48
2019-05-16T01:46:18.294Z,89.44
2019-05-16T01:47:18.405Z,89.13
2019-05-16T01:48:19.226Z,89.85
2019-05-16T01:49:18.747Z,91.03
2019-05-16T01:50:18.205Z,90.82
2019-05-16T01:51:18.407Z,90.72
2019-05-16T01:52:17.931Z,91.24
2019-05-16T01:53:18.077Z,92.37
2019-05-16T01:54:18.050Z,91.64
2019-05-16T01:55:18.628Z,91.75
2019-05-16T01:56:18.020Z,91.75
2019-05-16T01:57:18.143Z,92.27
2019-05-16T01:58:19.842Z,92.41
2019-05-16T01:59:18.160Z,92.06
2019-05-16T02:00:23.524Z,92.27
2019-05-16T02:01:18.993Z,92.57
2019-05-16T02:02:18.384Z,92.31
2019-05-16T02:03:19.001Z,92.41
2019-05-16T02:04:18.360Z,92.21
2019-05-16T02:05:18.760Z,92.72
2019-05-16T02:06:18.384Z,92.72
2019-05-16T02:07:18.801Z,92.31
2019-05-16T02:08:18.164Z,92.93
2019-05-16T02:09:18.850Z,92.78
2019-05-16T02:10:18.077Z,92.51
2019-05-16T02:11:18.099Z,92.68
2019-05-16T02:12:18.503Z,92.78
2019-05-16T02:13:18.020Z,93.03
2019-05-16T02:14:17.683Z,92.93
2019-05-16T02:15:18.187Z,92.72
2019-05-16T02:16:18.808Z,92.31
2019-05-16T02:17:18.378Z,92.99
2019-05-16T02:18:18.430Z,92.57
2019-05-16T02:19:18.794Z,92.37
2019-05-16T02:20:18.004Z,92.27
2019-05-16T02:21:18.203Z,92.16
2019-05-16T02:22:17.949Z,92.27
2019-05-16T02:23:18.872Z,92.37
2019-05-16T02:24:18.288Z,92.68
2019-05-16T02:25:18.634Z,92.27
2019-05-16T02:26:18.901Z,92.06
2019-05-16T02:27:25.780Z,91.03
2019-05-16T02:28:16.628Z,91.54
2019-05-16T02:29:16.594Z,90.92
2019-05-16T02:30:16.626Z,90.72
2019-05-16T02:31:16.527Z,90.67
2019-05-16T02:32:16.501Z,91.30
2019-05-16T02:33:16.471Z,91.60
2019-05-16T02:34:16.435Z,90.78
2019-05-16T02:35:16.430Z,91.09
2019-05-16T02:36:16.365Z,90.88
2019-05-16T02:37:24.120Z,91.19
2019-05-16T02:38:16.296Z,90.99
2019-05-16T02:39:16.273Z,90.47
2019-05-16T02:40:16.249Z,90.57
2019-05-16T02:41:16.198Z,91.09
2019-05-16T02:42:16.164Z,90.78
2019-05-16T02:43:16.132Z,90.88
2019-05-16T02:44:16.101Z,90.78
2019-05-16T02:45:16.111Z,90.67
2019-05-16T02:46:16.037Z,90.47
2019-05-16T02:47:16.005Z,91.09
2019-05-16T02:48:15.969Z,90.88
2019-05-16T02:49:15.935Z,91.60
2019-05-16T02:50:15.930Z,90.78
2019-05-16T02:51:15.876Z,90.88
2019-05-16T02:52:15.846Z,90.43
2019-05-16T02:53:15.807Z,90.88
2019-05-16T02:54:15.774Z,90.99
2019-05-16T02:55:15.761Z,91.81
2019-05-16T02:56:15.726Z,91.91
2019-05-16T02:57:16.218Z,92.22
2019-05-16T02:58:16.283Z,92.43
2019-05-16T02:59:15.607Z,92.22
2019-05-16T03:00:15.598Z,92.43
2019-05-16T03:01:15.538Z,92.63
2019-05-16T03:02:15.513Z,93.50
2019-05-16T03:03:15.492Z,93.09
2019-05-16T03:04:15.442Z,92.94
2019-05-16T03:05:15.429Z,93.05
2019-05-16T03:06:15.383Z,93.81
2019-05-16T03:07:32.858Z,93.40
2019-05-16T03:08:15.375Z,94.23
2019-05-16T03:09:15.276Z,94.43
2019-05-16T03:10:15.266Z,94.53
2019-05-16T03:11:15.210Z,94.53
2019-05-16T03:12:15.181Z,94.95
2019-05-16T03:13:15.144Z,95.15
2019-05-16T03:14:15.118Z,94.95
2019-05-16T03:15:15.120Z,95.36
2019-05-16T03:16:15.052Z,95.56
2019-05-16T03:17:15.014Z,95.67
2019-05-16T03:18:14.980Z,95.46
2019-05-16T03:19:14.948Z,95.87
2019-05-16T03:20:14.938Z,95.77
2019-05-16T03:21:14.883Z,95.56
2019-05-16T03:22:14.849Z,95.67
2019-05-16T03:23:14.813Z,95.15
2019-05-16T03:24:14.785Z,95.67
2019-05-16T03:25:14.775Z,95.87
2019-05-16T03:26:14.719Z,96.18
2019-05-16T03:27:14.691Z,96.49
2019-05-16T03:28:14.680Z,96.39
2019-05-16T03:29:14.617Z,96.18
2019-05-16T03:30:16.530Z,96.08
2019-05-16T03:31:15.839Z,96.70
2019-05-16T03:32:14.741Z,96.91
2019-05-16T03:33:23.413Z,96.70
2019-05-16T03:34:16.769Z,96.59
2019-05-16T03:35:16.267Z,97.42
2019-05-16T03:36:15.786Z,97.01
2019-05-16T03:37:15.107Z,97.42
2019-05-16T03:38:14.320Z,97.73
2019-05-16T03:39:14.287Z,97.94
2019-05-16T03:40:14.282Z,98.35
2019-05-16T03:41:14.225Z,98.29
2019-05-16T03:42:14.192Z,98.14
2019-05-16T03:43:14.155Z,98.45
2019-05-16T03:44:14.134Z,98.76
2019-05-16T03:45:14.109Z,98.45
2019-05-16T03:46:14.082Z,98.70
2019-05-16T03:47:14.026Z,98.91
2019-05-16T03:48:13.990Z,98.66
2019-05-16T03:49:13.958Z,98.97
2019-05-16T03:50:13.931Z,98.86
2019-05-16T03:51:13.914Z,98.76
2019-05-16T03:52:13.860Z,98.86
2019-05-16T03:53:13.830Z,99.27
2019-05-16T03:54:13.794Z,99.69
2019-05-16T03:55:13.764Z,99.69
2019-05-16T03:56:13.750Z,99.27
2019-05-16T03:57:13.696Z,99.48
2019-05-16T03:58:13.666Z,99.48
2019-05-16T03:59:13.631Z,99.99
2019-05-16T04:00:13.600Z,99.99
2019-05-16T04:01:13.622Z,99.90
2019-05-16T04:02:13.541Z,99.99
2019-05-16T04:03:13.516Z,99.79
2019-05-16T04:04:13.469Z,99.48
2019-05-16T04:05:13.430Z,99.90
2019-05-16T04:06:13.489Z,99.99
2019-05-16T04:07:13.376Z,99.99
2019-05-16T04:08:19.223Z,99.90
2019-05-16T04:09:13.300Z,99.85
2019-05-16T04:10:13.265Z,99.85
2019-05-16T04:11:13.329Z,99.64
2019-05-16T04:12:13.210Z,99.64
2019-05-16T04:13:13.177Z,99.99
2019-05-16T04:14:13.152Z,99.85
2019-05-16T04:15:13.802Z,99.95
2019-05-16T04:16:13.103Z,99.64
2019-05-16T04:17:13.041Z,99.74
2019-05-16T04:18:13.010Z,99.85
2019-05-16T04:19:12.977Z,99.95
2019-05-16T04:20:12.954Z,99.74
2019-05-16T04:21:12.933Z,99.85
2019-05-16T04:22:12.878Z,99.95
2019-05-16T04:23:12.856Z,99.85
2019-05-16T04:24:12.827Z,99.99
2019-05-16T04:25:13.717Z,99.60
2019-05-16T04:26:12.777Z,99.60
2019-05-16T04:27:12.714Z,99.74
2019-05-16T04:28:12.686Z,99.74
2019-05-16T04:29:12.673Z,99.90
2019-05-16T04:30:12.638Z,99.70
2019-05-16T04:31:12.587Z,99.99
2019-05-16T04:32:12.576Z,99.74
2019-05-16T04:33:12.533Z,99.99
2019-05-16T04:34:12.486Z,99.85
2019-05-16T04:35:12.458Z,99.90
2019-05-16T04:36:16.217Z,99.60
2019-05-16T04:37:12.414Z,99.99
2019-05-16T04:38:28.622Z,99.60
2019-05-16T04:39:12.326Z,99.60
2019-05-16T04:40:12.567Z,99.70
2019-05-16T04:41:12.265Z,99.99
2019-05-16T04:42:12.252Z,99.99
2019-05-16T04:43:12.197Z,99.99
2019-05-16T04:44:12.208Z,99.99
2019-05-16T04:45:12.344Z,99.99
2019-05-16T04:46:12.160Z,99.70
2019-05-16T04:47:12.095Z,99.96
2019-05-16T04:48:12.032Z,99.90
2019-05-16T04:49:12.007Z,99.99
2019-05-16T04:50:12.346Z,99.60
2019-05-16T04:51:11.944Z,99.99
2019-05-16T04:52:11.931Z,99.99
2019-05-16T04:53:11.876Z,99.99
2019-05-16T04:54:11.845Z,99.96
2019-05-16T04:55:12.328Z,99.99
2019-05-16T04:56:11.783Z,99.55
2019-05-16T04:57:12.151Z,99.65
2019-05-16T04:58:12.221Z,99.76
2019-05-16T04:59:16.231Z,99.96
2019-05-16T05:00:11.766Z,99.55
2019-05-16T05:01:11.626Z,99.44
2019-05-16T05:02:12.530Z,99.96
2019-05-16T05:03:11.994Z,99.91
2019-05-16T05:04:15.183Z,99.99
2019-05-16T05:05:12.520Z,99.81
2019-05-16T05:06:11.565Z,99.81
2019-05-16T05:07:11.496Z,99.91
2019-05-16T05:08:11.391Z,99.91
2019-05-16T05:09:11.857Z,99.81
2019-05-16T05:10:11.745Z,99.76
2019-05-16T05:11:11.290Z,99.99
2019-05-16T05:12:11.684Z,99.40
2019-05-16T05:13:11.260Z,99.40
2019-05-16T05:14:11.203Z,99.40
2019-05-16T05:15:11.670Z,99.96
2019-05-16T05:16:11.134Z,99.91
2019-05-16T05:17:11.140Z,99.51
2019-05-16T05:18:11.069Z,99.71
2019-05-16T05:19:11.261Z,99.81
2019-05-16T05:20:11.158Z,99.91
2019-05-16T05:21:11.644Z,99.86
2019-05-16T05:22:10.961Z,99.91
2019-05-16T05:23:10.903Z,99.99
2019-05-16T05:24:11.167Z,99.40
2019-05-16T05:25:11.114Z,99.60
2019-05-16T05:26:10.977Z,99.91
2019-05-16T05:27:10.801Z,99.91
2019-05-16T05:28:13.486Z,99.91
2019-05-16T05:29:10.718Z,99.99
2019-05-16T05:30:10.856Z,99.91
2019-05-16T05:31:11.020Z,99.81
2019-05-16T05:32:14.266Z,99.91
2019-05-16T05:33:10.587Z,99.81
2019-05-16T05:34:10.806Z,99.71
2019-05-16T05:35:10.862Z,99.99
2019-05-16T05:36:12.429Z,99.99
2019-05-16T05:37:12.481Z,99.99
2019-05-16T05:38:10.617Z,99.81
2019-05-16T05:39:15.244Z,99.40
2019-05-16T05:40:10.677Z,99.71
2019-05-16T05:41:10.849Z,99.81
2019-05-16T05:42:10.599Z,99.81
2019-05-16T05:43:10.670Z,99.71
2019-05-16T05:44:10.867Z,99.77
2019-05-16T05:45:11.175Z,99.77
2019-05-16T05:46:11.227Z,99.66
2019-05-16T05:47:10.788Z,99.40
2019-05-16T05:48:10.720Z,99.66
2019-05-16T05:49:10.679Z,99.66
2019-05-16T05:50:11.182Z,99.97
2019-05-16T05:51:11.346Z,99.77
2019-05-16T05:52:11.834Z,99.99
2019-05-16T05:53:10.305Z,99.71
2019-05-16T05:54:10.863Z,99.46
2019-05-16T05:55:10.517Z,99.66
2019-05-16T05:56:11.242Z,99.71
2019-05-16T05:57:09.963Z,99.56
2019-05-16T05:58:10.149Z,99.46
2019-05-16T05:59:11.338Z,99.66
2019-05-16T06:00:10.016Z,99.40
2019-05-16T06:01:11.195Z,99.77
2019-05-16T06:02:11.296Z,99.66
2019-05-16T06:03:10.676Z,99.46
2019-05-16T06:04:10.564Z,99.35
2019-05-16T06:05:10.608Z,99.56
2019-05-16T06:06:10.486Z,99.46
2019-05-16T06:07:10.155Z,99.46
2019-05-16T06:08:10.650Z,99.46
2019-05-16T06:09:14.340Z,99.51
2019-05-16T06:10:10.616Z,99.15
2019-05-16T06:11:10.041Z,99.93
2019-05-16T06:12:10.537Z,99.41
2019-05-16T06:13:11.075Z,99.21
2019-05-16T06:14:09.850Z,99.21
2019-05-16T06:15:12.438Z,99.05
2019-05-16T06:16:10.774Z,98.94
2019-05-16T06:17:11.437Z,98.79
2019-05-16T06:18:10.823Z,99.21
2019-05-16T06:19:10.985Z,98.69
2019-05-16T06:20:14.302Z,98.38
2019-05-16T06:21:11.549Z,98.49
2019-05-16T06:22:10.206Z,98.59
2019-05-16T06:23:10.577Z,99.10
2019-05-16T06:24:10.746Z,98.49
2019-05-16T06:25:13.367Z,98.59
2019-05-16T06:26:11.860Z,98.79
2019-05-16T06:27:09.856Z,98.79
2019-05-16T06:28:10.567Z,98.85
2019-05-16T06:29:10.457Z,98.79
2019-05-16T06:30:11.132Z,98.38
2019-05-16T06:31:13.719Z,98.24
2019-05-16T06:32:10.265Z,98.49
2019-05-16T06:33:10.203Z,98.65
2019-05-16T06:34:14.493Z,98.33
2019-05-16T06:35:09.806Z,98.65
2019-05-16T06:36:10.841Z,98.33
2019-05-16T06:37:09.852Z,98.08
2019-05-16T06:38:10.003Z,98.50
2019-05-16T06:39:11.235Z,98.39
2019-05-16T06:40:10.718Z,98.19
2019-05-16T06:41:10.210Z,98.24
2019-05-16T06:42:09.866Z,98.24
2019-05-16T06:43:10.787Z,98.54
2019-05-16T06:44:10.517Z,97.41
2019-05-16T06:45:10.384Z,98.03
2019-05-16T06:46:10.821Z,98.33
2019-05-16T06:47:16.977Z,98.29
2019-05-16T06:48:10.012Z,98.33
2019-05-16T06:49:10.194Z,98.24
2019-05-16T06:50:08.128Z,98.54
2019-05-16T06:51:10.571Z,98.24
2019-05-16T06:52:10.266Z,98.33
2019-05-16T06:53:10.233Z,98.24
2019-05-16T06:54:09.934Z,98.54
2019-05-16T06:55:10.184Z,98.54
2019-05-16T06:56:10.324Z,98.44
2019-05-16T06:57:10.412Z,98.24
2019-05-16T06:58:10.432Z,98.29
2019-05-16T06:59:10.181Z,98.50
2019-05-16T07:00:07.823Z,98.60
2019-05-16T07:01:10.361Z,98.50
2019-05-16T07:02:07.745Z,98.50
2019-05-16T07:03:09.407Z,98.29
2019-05-16T07:04:07.708Z,98.60
2019-05-16T07:05:09.873Z,98.50
2019-05-16T07:06:09.657Z,98.39
2019-05-16T07:07:09.713Z,98.08
2019-05-16T07:08:07.563Z,97.92
2019-05-16T07:09:10.305Z,98.08
2019-05-16T07:10:09.594Z,97.57
2019-05-16T07:11:07.471Z,98.08
2019-05-16T07:12:07.443Z,97.78
2019-05-16T07:13:07.401Z,97.88
2019-05-16T07:14:07.393Z,97.78
2019-05-16T07:15:11.358Z,97.99
2019-05-16T07:16:09.614Z,97.67
2019-05-16T07:17:09.615Z,97.73
2019-05-16T07:18:09.977Z,97.63
2019-05-16T07:19:07.244Z,98.14
2019-05-16T07:20:07.184Z,97.63
2019-05-16T07:21:07.150Z,97.32
2019-05-16T07:22:07.121Z,97.53
2019-05-16T07:23:07.106Z,97.32
2019-05-16T07:24:07.090Z,96.91
2019-05-16T07:25:07.029Z,96.70
2019-05-16T07:26:07.000Z,96.91
2019-05-16T07:27:09.092Z,96.70
2019-05-16T07:28:06.954Z,96.70
2019-05-16T07:29:06.932Z,96.91
2019-05-16T07:30:06.873Z,96.81
2019-05-16T07:31:15.665Z,96.40
2019-05-16T07:32:06.810Z,96.50
2019-05-16T07:33:06.778Z,96.91
2019-05-16T07:34:06.770Z,96.70
2019-05-16T07:35:06.719Z,97.12
2019-05-16T07:36:06.713Z,96.70
2019-05-16T07:37:06.664Z,96.50
2019-05-16T07:38:06.641Z,96.91
2019-05-16T07:39:06.622Z,96.75
2019-05-16T07:40:15.947Z,96.75
2019-05-16T07:41:06.539Z,96.40
2019-05-16T07:42:06.506Z,96.91
2019-05-16T07:43:06.471Z,97.73
2019-05-16T07:44:06.479Z,97.53
2019-05-16T07:45:06.403Z,97.53
2019-05-16T07:46:06.382Z,97.42
2019-05-16T07:47:06.346Z,96.91
2019-05-16T07:48:06.317Z,97.02
2019-05-16T07:49:06.311Z,96.81
2019-05-16T07:50:06.250Z,97.32
2019-05-16T07:51:06.224Z,96.97
2019-05-16T07:52:06.188Z,97.12
2019-05-16T07:53:06.162Z,96.81
2019-05-16T07:54:06.128Z,96.45
2019-05-16T07:55:06.128Z,96.40
2019-05-16T07:56:06.066Z,96.40
2019-05-16T07:57:16.030Z,96.40
2019-05-16T07:58:05.999Z,96.60
2019-05-16T07:59:05.978Z,96.60
2019-05-16T08:00:05.964Z,96.40
2019-05-16T08:01:09.107Z,96.50
2019-05-16T08:02:05.879Z,96.35
2019-05-16T08:03:05.846Z,96.45
2019-05-16T08:04:05.816Z,96.35
2019-05-16T08:05:05.813Z,96.66
2019-05-16T08:06:05.783Z,96.40
2019-05-16T08:07:05.942Z,96.66
2019-05-16T08:08:05.710Z,96.15
2019-05-16T08:09:07.864Z,96.25
2019-05-16T08:10:05.659Z,96.87
2019-05-16T08:11:05.603Z,96.77
2019-05-16T08:12:06.037Z,96.45
2019-05-16T08:13:05.564Z,96.25
2019-05-16T08:14:06.249Z,96.66
2019-05-16T08:15:05.503Z,96.35
2019-05-16T08:16:05.524Z,96.45
2019-05-16T08:17:05.529Z,96.56
2019-05-16T08:18:11.256Z,96.66
2019-05-16T08:19:05.355Z,96.15
2019-05-16T08:20:05.347Z,96.35
2019-05-16T08:21:05.300Z,96.15
2019-05-16T08:22:05.265Z,96.87
2019-05-16T08:23:05.240Z,96.97
2019-05-16T08:24:07.773Z,97.17
2019-05-16T08:25:05.221Z,96.87
2019-05-16T08:26:05.834Z,97.28
2019-05-16T08:27:05.113Z,97.28
2019-05-16T08:28:14.348Z,97.38
2019-05-16T08:29:05.051Z,97.17
2019-05-16T08:30:05.046Z,97.58
2019-05-16T08:31:04.990Z,97.69
2019-05-16T08:32:04.952Z,97.58
2019-05-16T08:33:04.921Z,97.38
2019-05-16T08:34:04.889Z,97.38
2019-05-16T08:35:04.886Z,98.30
2019-05-16T08:36:08.056Z,98.16
2019-05-16T08:37:04.803Z,98.16
2019-05-16T08:38:04.777Z,98.20
2019-05-16T08:39:04.742Z,97.89
2019-05-16T08:40:04.729Z,98.20
2019-05-16T08:41:12.202Z,98.25
2019-05-16T08:42:08.302Z,98.05
2019-05-16T08:43:04.612Z,98.16
2019-05-16T08:44:04.582Z,98.20
2019-05-16T08:45:04.617Z,98.30
2019-05-16T08:46:04.517Z,98.41
2019-05-16T08:47:06.045Z,98.41
2019-05-16T08:48:04.476Z,98.51
2019-05-16T08:49:04.457Z,98.20
2019-05-16T08:50:04.475Z,98.51
2019-05-16T08:51:04.365Z,99.22
2019-05-16T08:52:04.340Z,98.82
2019-05-16T08:53:04.303Z,98.92
2019-05-16T08:54:04.276Z,98.92
2019-05-16T08:55:04.269Z,99.02
2019-05-16T08:56:04.222Z,99.63
2019-05-16T08:57:25.536Z,99.12
2019-05-16T08:58:04.151Z,99.43
2019-05-16T08:59:04.460Z,99.12
2019-05-16T09:00:04.111Z,99.63
2019-05-16T09:01:04.059Z,99.12
2019-05-16T09:02:04.061Z,99.07
2019-05-16T09:03:03.996Z,99.22
2019-05-16T09:04:03.965Z,99.12
2019-05-16T09:05:05.562Z,99.63
2019-05-16T09:06:03.939Z,99.43
2019-05-16T09:07:03.972Z,99.12
2019-05-16T09:08:03.845Z,99.22
2019-05-16T09:09:15.587Z,99.43
2019-05-16T09:10:03.781Z,99.43
2019-05-16T09:11:24.887Z,99.54
2019-05-16T09:12:03.721Z,99.38
2019-05-16T09:13:03.681Z,99.18
2019-05-16T09:14:03.651Z,99.43
2019-05-16T09:15:03.622Z,99.54
2019-05-16T09:16:03.617Z,98.92
2019-05-16T09:17:03.558Z,99.22
2019-05-16T09:18:03.528Z,99.22
2019-05-16T09:19:03.499Z,99.22
2019-05-16T09:20:03.469Z,99.43
2019-05-16T09:21:03.458Z,99.33
2019-05-16T09:22:03.404Z,99.33
2019-05-16T09:23:03.380Z,99.74
2019-05-16T09:24:03.347Z,99.33
2019-05-16T09:25:03.338Z,99.43
2019-05-16T09:26:03.336Z,99.63
2019-05-16T09:27:03.332Z,99.59
2019-05-16T09:28:03.220Z,99.33
2019-05-16T09:29:03.224Z,99.49
2019-05-16T09:30:03.163Z,99.84
2019-05-16T09:31:03.156Z,99.84
2019-05-16T09:32:16.329Z,99.18
2019-05-16T09:33:03.085Z,99.63
2019-05-16T09:34:03.040Z,99.74
2019-05-16T09:35:03.055Z,99.49
2019-05-16T09:36:03.016Z,99.49
2019-05-16T09:37:03.188Z,99.59
2019-05-16T09:38:02.996Z,99.49
2019-05-16T09:39:02.942Z,99.44
2019-05-16T09:40:02.851Z,99.79
2019-05-16T09:41:02.873Z,99.49
2019-05-16T09:42:02.790Z,99.54
2019-05-16T09:43:02.804Z,99.18
2019-05-16T09:44:02.731Z,99.75
2019-05-16T09:45:02.720Z,99.75
2019-05-16T09:46:07.617Z,99.38
2019-05-16T09:47:02.648Z,99.28
2019-05-16T09:48:02.625Z,99.13
2019-05-16T09:49:16.687Z,99.34
2019-05-16T09:50:02.548Z,99.24
2019-05-16T09:51:02.544Z,99.34
2019-05-16T09:52:02.487Z,99.34
2019-05-16T09:53:02.463Z,99.24
2019-05-16T09:54:02.428Z,98.93
2019-05-16T09:55:02.418Z,99.38
2019-05-16T09:56:02.390Z,99.38
2019-05-16T09:57:02.352Z,99.18
2019-05-16T09:58:02.301Z,99.28
2019-05-16T09:59:02.273Z,99.08
2019-05-16T10:00:02.248Z,99.13
2019-05-16T10:01:02.232Z,99.34
2019-05-16T10:02:02.184Z,99.34
2019-05-16T10:03:02.213Z,99.54
2019-05-16T10:04:02.153Z,99.13
2019-05-16T10:05:02.107Z,99.34
2019-05-16T10:06:02.057Z,99.44
2019-05-16T10:07:02.058Z,99.65
2019-05-16T10:08:02.002Z,99.54
2019-05-16T10:09:01.969Z,99.54
2019-05-16T10:10:01.950Z,98.87
2019-05-16T10:11:01.916Z,99.49
2019-05-16T10:12:14.213Z,99.38
2019-05-16T10:13:01.847Z,99.69
2019-05-16T10:14:01.812Z,99.59
2019-05-16T10:15:01.797Z,99.49
2019-05-16T10:16:01.783Z,99.24
2019-05-16T10:17:01.756Z,99.75
2019-05-16T10:18:01.699Z,99.44
2019-05-16T10:19:01.656Z,99.34
2019-05-16T10:20:01.646Z,99.80
2019-05-16T10:21:01.603Z,99.65
2019-05-16T10:22:01.594Z,99.99
2019-05-16T10:23:01.589Z,99.91
2019-05-16T10:24:01.506Z,99.99
2019-05-16T10:25:01.472Z,99.99
2019-05-16T10:26:01.446Z,99.99
2019-05-16T10:27:01.441Z,99.80
2019-05-16T10:28:01.389Z,99.45
2019-05-16T10:29:01.350Z,99.99
2019-05-16T10:30:01.843Z,99.60
2019-05-16T10:31:01.295Z,99.96
2019-05-16T10:32:01.324Z,99.76
2019-05-16T10:33:01.234Z,99.91
2019-05-16T10:34:01.204Z,99.96
2019-05-16T10:35:01.182Z,99.40
2019-05-16T10:36:01.139Z,99.91
2019-05-16T10:37:01.141Z,99.99
2019-05-16T10:38:01.079Z,99.99
2019-05-16T10:39:01.050Z,99.70
2019-05-16T10:40:01.022Z,99.80
2019-05-16T10:41:00.993Z,99.99
2019-05-16T10:42:01.029Z,99.99
2019-05-16T10:43:00.929Z,99.99
2019-05-16T10:44:00.904Z,99.99
2019-05-16T10:45:00.902Z,99.96
2019-05-16T10:46:00.844Z,99.99
2019-05-16T10:47:00.838Z,99.99
2019-05-16T10:48:00.787Z,99.86
2019-05-16T10:49:00.782Z,99.99
2019-05-16T10:50:00.717Z,99.99
2019-05-16T10:51:00.689Z,99.55
2019-05-16T10:52:00.691Z,99.99
2019-05-16T10:53:22.386Z,99.51
2019-05-16T10:54:09.760Z,99.99
2019-05-16T10:55:02.572Z,99.51
2019-05-16T10:56:00.604Z,99.30
2019-05-16T10:57:00.663Z,99.10
2019-05-16T10:58:00.522Z,99.30
2019-05-16T10:59:45.888Z,98.95
2019-05-16T11:00:08.972Z,99.15
2019-05-16T11:01:22.515Z,99.15
2019-05-16T11:02:00.378Z,98.49
2019-05-16T11:03:00.352Z,98.60
2019-05-16T11:04:00.296Z,98.24
2019-05-16T11:05:14.375Z,97.57
2019-05-16T11:06:05.374Z,97.98
2019-05-16T11:07:00.236Z,97.47
2019-05-16T11:08:00.461Z,97.33
2019-05-16T11:09:00.159Z,97.74
2019-05-16T11:10:03.504Z,96.45
2019-05-16T11:11:00.112Z,97.27
2019-05-16T11:12:00.105Z,97.88
2019-05-16T11:13:00.074Z,97.47
2019-05-16T11:14:00.037Z,97.67
2019-05-16T11:14:59.976Z,97.94
2019-05-16T11:15:59.949Z,97.89
2019-05-16T11:16:59.949Z,97.79
2019-05-16T11:18:00.226Z,97.17
2019-05-16T11:19:14.140Z,97.38
2019-05-16T11:19:59.926Z,96.97
2019-05-16T11:20:59.833Z,97.02
2019-05-16T11:21:59.799Z,97.08
2019-05-16T11:22:59.767Z,97.38
2019-05-16T11:23:59.719Z,97.22
2019-05-16T11:24:59.711Z,97.42
2019-05-16T11:25:59.661Z,97.12
2019-05-16T11:26:59.653Z,97.02
2019-05-16T11:27:59.603Z,97.12
2019-05-16T11:28:59.580Z,96.66
2019-05-16T11:29:59.586Z,96.86
2019-05-16T11:31:03.324Z,97.67
2019-05-16T11:31:59.489Z,97.16
2019-05-16T11:32:59.476Z,97.37
2019-05-16T11:33:59.428Z,97.57
2019-05-16T11:34:59.399Z,97.16
2019-05-16T11:35:59.362Z,97.57
2019-05-16T11:36:59.336Z,97.16
2019-05-16T11:37:59.329Z,97.31
2019-05-16T11:39:01.837Z,97.31
2019-05-16T11:39:59.255Z,97.47
2019-05-16T11:40:59.223Z,97.92
2019-05-16T11:41:59.192Z,97.41
2019-05-16T11:43:09.392Z,97.52
2019-05-16T11:43:59.133Z,98.19
2019-05-16T11:44:59.101Z,97.78
2019-05-16T11:45:59.069Z,97.88
2019-05-16T11:46:59.045Z,97.37
2019-05-16T11:47:59.039Z,97.37
2019-05-16T11:48:58.984Z,97.47
2019-05-16T11:49:58.953Z,97.37
2019-05-16T11:50:58.936Z,97.83
2019-05-16T11:51:58.898Z,97.74
2019-05-16T11:52:58.902Z,97.99
2019-05-16T11:54:00.039Z,97.79
2019-05-16T11:54:58.809Z,97.79
2019-05-16T11:56:01.579Z,97.49
2019-05-16T11:56:58.758Z,97.79
2019-05-16T11:57:58.744Z,98.20
2019-05-16T11:58:58.693Z,97.38
2019-05-16T11:59:58.667Z,97.42
2019-05-16T12:00:58.636Z,97.42
2019-05-16T12:01:58.609Z,97.02
2019-05-16T12:02:58.605Z,97.42
2019-05-16T12:03:58.549Z,97.53
2019-05-16T12:04:58.520Z,97.57
2019-05-16T12:05:58.492Z,97.47
2019-05-16T12:06:58.494Z,97.47
2019-05-16T12:07:58.474Z,97.57
2019-05-16T12:08:58.403Z,97.42
2019-05-16T12:09:58.378Z,97.53
2019-05-16T12:10:58.348Z,97.12
2019-05-16T12:12:03.884Z,96.00
2019-05-16T12:12:58.319Z,96.56
2019-05-16T12:13:58.263Z,96.05
2019-05-16T12:14:58.464Z,96.36
2019-05-16T12:15:58.206Z,95.48
2019-05-16T12:16:58.171Z,96.05
2019-05-16T12:18:01.890Z,95.85
2019-05-16T12:18:58.139Z,95.85
2019-05-16T12:19:58.086Z,96.62
2019-05-16T12:20:58.057Z,96.11
2019-05-16T12:21:58.035Z,96.27
2019-05-16T12:22:58.004Z,95.92
2019-05-16T12:23:57.998Z,95.41
2019-05-16T12:24:57.949Z,95.26
2019-05-16T12:26:00.155Z,95.10
2019-05-16T12:27:00.809Z,94.59
2019-05-16T12:27:57.860Z,94.84
2019-05-16T12:28:57.854Z,94.43
2019-05-16T12:29:58.984Z,94.84
2019-05-16T12:30:57.774Z,94.70
2019-05-16T12:32:02.391Z,94.90
2019-05-16T12:32:58.202Z,94.70
2019-05-16T12:33:59.698Z,95.04
2019-05-16T12:34:57.658Z,94.84
2019-05-16T12:35:57.737Z,95.15
2019-05-16T12:36:57.601Z,95.04
2019-05-16T12:37:57.572Z,94.79
2019-05-16T12:38:57.628Z,95.15
2019-05-16T12:39:57.520Z,94.38
2019-05-16T12:40:57.492Z,93.67
2019-05-16T12:41:59.225Z,94.02
2019-05-16T12:42:57.434Z,94.43
2019-05-16T12:43:58.061Z,94.90
2019-05-16T12:44:57.385Z,94.55
2019-05-16T12:45:57.353Z,94.65
2019-05-16T12:46:57.401Z,94.71
2019-05-16T12:47:57.532Z,95.26
2019-05-16T12:48:57.710Z,95.16
2019-05-16T12:49:57.237Z,94.65
2019-05-16T12:50:58.998Z,94.55
2019-05-16T12:51:57.180Z,95.00